sensor_id;sensor_type;location;lat;lon;timestamp;pressure;altitude;pressure_sealevel;temperature;humidity
79037;BME280;68434;59.896;30.474;2023-07-13T00:02:19;100635.88;;;20.91;41.67
79037;BME280;68434;59.896;30.474;2023-07-13T00:04:47;100626.19;;;20.89;41.82
79037;BME280;68434;59.896;30.474;2023-07-13T00:07:15;100629.78;;;20.89;41.78
79037;BME280;68434;59.896;30.474;2023-07-13T00:09:48;100622.13;;;20.91;41.75
79037;BME280;68434;59.896;30.474;2023-07-13T00:12:27;100616.41;;;20.93;41.72
79037;BME280;68434;59.896;30.474;2023-07-13T00:14:56;100621.91;;;20.93;41.70
79037;BME280;68434;59.896;30.474;2023-07-13T00:17:24;100611.34;;;20.90;41.60
79037;BME280;68434;59.896;30.474;2023-07-13T00:19:51;100609.69;;;20.89;42.14
79037;BME280;68434;59.896;30.474;2023-07-13T00:22:22;100605.50;;;20.86;42.64
79037;BME280;68434;59.896;30.474;2023-07-13T00:24:53;100607.38;;;20.86;42.86
79037;BME280;68434;59.896;30.474;2023-07-13T00:27:22;100609.72;;;20.82;42.60
79037;BME280;68434;59.896;30.474;2023-07-13T00:29:53;100606.97;;;20.82;42.56
79037;BME280;68434;59.896;30.474;2023-07-13T00:32:20;100600.22;;;20.85;42.49
79037;BME280;68434;59.896;30.474;2023-07-13T00:34:48;100602.34;;;20.83;42.28
79037;BME280;68434;59.896;30.474;2023-07-13T00:37:18;100595.97;;;20.82;42.40
79037;BME280;68434;59.896;30.474;2023-07-13T00:39:47;100589.88;;;20.80;42.46
79037;BME280;68434;59.896;30.474;2023-07-13T00:42:16;100586.06;;;20.81;42.32
79037;BME280;68434;59.896;30.474;2023-07-13T00:45:01;100587.97;;;20.81;42.13
79037;BME280;68434;59.896;30.474;2023-07-13T00:47:31;100590.94;;;20.79;42.09
79037;BME280;68434;59.896;30.474;2023-07-13T00:50:00;100586.72;;;20.77;42.34
79037;BME280;68434;59.896;30.474;2023-07-13T00:52:30;100590.56;;;20.76;42.12
79037;BME280;68434;59.896;30.474;2023-07-13T00:54:58;100584.84;;;20.77;41.98
79037;BME280;68434;59.896;30.474;2023-07-13T00:57:28;100580.59;;;20.75;42.23
79037;BME280;68434;59.896;30.474;2023-07-13T01:00:03;100578.94;;;20.74;42.29
79037;BME280;68434;59.896;30.474;2023-07-13T01:02:36;100573.44;;;20.74;41.96
79037;BME280;68434;59.896;30.474;2023-07-13T01:05:09;100573.66;;;20.72;42.54
79037;BME280;68434;59.896;30.474;2023-07-13T01:07:37;100579.78;;;20.74;42.16
79037;BME280;68434;59.896;30.474;2023-07-13T01:10:07;100576.81;;;20.76;42.13
79037;BME280;68434;59.896;30.474;2023-07-13T01:12:36;100581.47;;;20.75;41.78
79037;BME280;68434;59.896;30.474;2023-07-13T01:15:05;100578.47;;;20.77;41.76
79037;BME280;68434;59.896;30.474;2023-07-13T01:17:34;100565.41;;;20.72;42.16
79037;BME280;68434;59.896;30.474;2023-07-13T01:20:01;100570.28;;;20.70;42.42
79037;BME280;68434;59.896;30.474;2023-07-13T01:22:32;100573.03;;;20.70;42.47
79037;BME280;68434;59.896;30.474;2023-07-13T01:25:01;100571.75;;;20.73;42.21
79037;BME280;68434;59.896;30.474;2023-07-13T01:27:30;100571.31;;;20.76;41.73
79037;BME280;68434;59.896;30.474;2023-07-13T01:29:59;100558.16;;;20.78;41.57
79037;BME280;68434;59.896;30.474;2023-07-13T01:32:32;100558.38;;;20.76;41.27
79037;BME280;68434;59.896;30.474;2023-07-13T01:35:00;100553.97;;;20.75;41.53
79037;BME280;68434;59.896;30.474;2023-07-13T01:37:30;100564.34;;;20.73;41.83
79037;BME280;68434;59.896;30.474;2023-07-13T01:40:00;100560.59;;;20.68;41.98
79037;BME280;68434;59.896;30.474;2023-07-13T01:42:31;100557.22;;;20.66;41.56
79037;BME280;68434;59.896;30.474;2023-07-13T01:44:59;100569.72;;;20.62;41.53
79037;BME280;68434;59.896;30.474;2023-07-13T01:47:26;100569.97;;;20.60;41.86
79037;BME280;68434;59.896;30.474;2023-07-13T01:49:57;100567.63;;;20.64;41.43
79037;BME280;68434;59.896;30.474;2023-07-13T01:52:25;100561.03;;;20.65;41.67
79037;BME280;68434;59.896;30.474;2023-07-13T01:54:53;100557.84;;;20.68;41.59
79037;BME280;68434;59.896;30.474;2023-07-13T01:57:22;100563.13;;;20.69;41.71
79037;BME280;68434;59.896;30.474;2023-07-13T01:59:50;100567.31;;;20.72;41.85
79037;BME280;68434;59.896;30.474;2023-07-13T02:02:17;100554.19;;;20.74;41.79
79037;BME280;68434;59.896;30.474;2023-07-13T02:04:45;100558.38;;;20.76;41.94
79037;BME280;68434;59.896;30.474;2023-07-13T02:07:14;100549.91;;;20.78;41.92
79037;BME280;68434;59.896;30.474;2023-07-13T02:09:42;100549.47;;;20.81;41.97
79037;BME280;68434;59.896;30.474;2023-07-13T02:12:10;100550.94;;;20.83;41.89
79037;BME280;68434;59.896;30.474;2023-07-13T02:14:39;100542.22;;;20.86;41.97
79037;BME280;68434;59.896;30.474;2023-07-13T02:17:07;100548.09;;;20.90;41.95
79037;BME280;68434;59.896;30.474;2023-07-13T02:19:35;100542.38;;;20.91;41.88
79037;BME280;68434;59.896;30.474;2023-07-13T02:22:03;100537.94;;;20.90;41.93
79037;BME280;68434;59.896;30.474;2023-07-13T02:24:31;100534.13;;;20.91;42.09
79037;BME280;68434;59.896;30.474;2023-07-13T02:26:58;100538.81;;;20.91;42.17
79037;BME280;68434;59.896;30.474;2023-07-13T02:29:26;100539.63;;;20.91;42.85
79037;BME280;68434;59.896;30.474;2023-07-13T02:31:55;100539.03;;;20.89;42.95
79037;BME280;68434;59.896;30.474;2023-07-13T02:34:23;100538.41;;;20.87;42.91
79037;BME280;68434;59.896;30.474;2023-07-13T02:36:51;100542.22;;;20.86;42.82
79037;BME280;68434;59.896;30.474;2023-07-13T02:39:19;100550.50;;;20.86;42.83
79037;BME280;68434;59.896;30.474;2023-07-13T02:41:46;100555.75;;;20.88;42.76
79037;BME280;68434;59.896;30.474;2023-07-13T02:44:14;100559.97;;;20.90;42.80
79037;BME280;68434;59.896;30.474;2023-07-13T02:46:42;100562.25;;;20.93;42.64
79037;BME280;68434;59.896;30.474;2023-07-13T02:49:12;100567.97;;;20.92;42.55
79037;BME280;68434;59.896;30.474;2023-07-13T02:51:40;100572.19;;;20.94;42.62
79037;BME280;68434;59.896;30.474;2023-07-13T02:54:08;100576.13;;;21.05;42.25
79037;BME280;68434;59.896;30.474;2023-07-13T02:56:37;100563.91;;;21.01;42.20
79037;BME280;68434;59.896;30.474;2023-07-13T02:59:06;100554.22;;;20.98;42.05
79037;BME280;68434;59.896;30.474;2023-07-13T03:01:33;100563.44;;;21.04;41.85
79037;BME280;68434;59.896;30.474;2023-07-13T03:04:03;100563.09;;;20.94;41.23
79037;BME280;68434;59.896;30.474;2023-07-13T03:06:35;100568.66;;;20.87;41.25
79037;BME280;68434;59.896;30.474;2023-07-13T03:09:03;100562.53;;;20.85;40.92
79037;BME280;68434;59.896;30.474;2023-07-13T03:11:34;100563.16;;;20.87;40.64
79037;BME280;68434;59.896;30.474;2023-07-13T03:14:22;100561.31;;;20.81;40.26
79037;BME280;68434;59.896;30.474;2023-07-13T03:16:50;100571.31;;;20.76;40.20
79037;BME280;68434;59.896;30.474;2023-07-13T03:19:21;100571.53;;;20.74;39.96
79037;BME280;68434;59.896;30.474;2023-07-13T03:21:52;100571.13;;;20.71;40.24
79037;BME280;68434;59.896;30.474;2023-07-13T03:24:19;100578.75;;;20.69;40.02
79037;BME280;68434;59.896;30.474;2023-07-13T03:26:52;100579.38;;;20.71;39.88
79037;BME280;68434;59.896;30.474;2023-07-13T03:29:20;100576.72;;;20.82;40.04
79037;BME280;68434;59.896;30.474;2023-07-13T03:31:47;100568.56;;;20.76;39.94
79037;BME280;68434;59.896;30.474;2023-07-13T03:34:15;100561.22;;;20.70;39.91
79037;BME280;68434;59.896;30.474;2023-07-13T03:36:43;100563.13;;;20.69;40.25
79037;BME280;68434;59.896;30.474;2023-07-13T03:39:14;100553.97;;;20.75;40.48
79037;BME280;68434;59.896;30.474;2023-07-13T03:41:52;100557.72;;;20.81;40.39
79037;BME280;68434;59.896;30.474;2023-07-13T03:44:20;100543.59;;;20.77;40.46
79037;BME280;68434;59.896;30.474;2023-07-13T03:46:53;100547.47;;;20.70;40.24
79037;BME280;68434;59.896;30.474;2023-07-13T03:49:20;100538.19;;;20.64;40.56
79037;BME280;68434;59.896;30.474;2023-07-13T03:51:48;100543.31;;;20.61;40.71
79037;BME280;68434;59.896;30.474;2023-07-13T03:54:17;100539.94;;;20.59;41.21
79037;BME280;68434;59.896;30.474;2023-07-13T03:56:45;100534.91;;;20.56;41.19
79037;BME280;68434;59.896;30.474;2023-07-13T03:59:12;100543.13;;;20.56;41.05
79037;BME280;68434;59.896;30.474;2023-07-13T04:01:40;100544.44;;;20.53;40.83
79037;BME280;68434;59.896;30.474;2023-07-13T04:04:08;100550.06;;;20.40;40.19
79037;BME280;68434;59.896;30.474;2023-07-13T04:06:35;100549.31;;;20.26;40.47
79037;BME280;68434;59.896;30.474;2023-07-13T04:09:04;100543.22;;;20.18;40.40
79037;BME280;68434;59.896;30.474;2023-07-13T04:11:34;100542.41;;;20.11;40.47
79037;BME280;68434;59.896;30.474;2023-07-13T04:14:03;100540.75;;;20.03;41.03
79037;BME280;68434;59.896;30.474;2023-07-13T04:16:34;100530.44;;;19.99;40.95
79037;BME280;68434;59.896;30.474;2023-07-13T04:19:01;100524.75;;;19.94;41.08
79037;BME280;68434;59.896;30.474;2023-07-13T04:21:30;100536.38;;;19.96;41.54
79037;BME280;68434;59.896;30.474;2023-07-13T04:23:59;100538.69;;;19.99;41.57
79037;BME280;68434;59.896;30.474;2023-07-13T04:26:26;100537.84;;;19.98;40.52
79037;BME280;68434;59.896;30.474;2023-07-13T04:28:56;100535.31;;;19.97;40.21
79037;BME280;68434;59.896;30.474;2023-07-13T04:31:24;100532.75;;;20.02;40.54
79037;BME280;68434;59.896;30.474;2023-07-13T04:33:51;100529.78;;;20.03;39.75
79037;BME280;68434;59.896;30.474;2023-07-13T04:36:19;100527.88;;;20.04;39.82
79037;BME280;68434;59.896;30.474;2023-07-13T04:38:47;100526.59;;;20.06;39.61
79037;BME280;68434;59.896;30.474;2023-07-13T04:41:15;100526.59;;;20.13;39.13
79037;BME280;68434;59.896;30.474;2023-07-13T04:43:42;100523.72;;;20.26;39.97
79037;BME280;68434;59.896;30.474;2023-07-13T04:46:14;100524.59;;;20.26;39.36
79037;BME280;68434;59.896;30.474;2023-07-13T04:48:43;100526.03;;;20.29;39.45
79037;BME280;68434;59.896;30.474;2023-07-13T04:51:11;100516.72;;;20.30;39.55
79037;BME280;68434;59.896;30.474;2023-07-13T04:53:39;100520.09;;;20.32;39.32
79037;BME280;68434;59.896;30.474;2023-07-13T04:56:06;100517.53;;;20.37;39.16
79037;BME280;68434;59.896;30.474;2023-07-13T04:58:34;100522.34;;;20.41;38.77
79037;BME280;68434;59.896;30.474;2023-07-13T05:01:03;100522.34;;;20.41;38.30
79037;BME280;68434;59.896;30.474;2023-07-13T05:03:33;100525.09;;;20.41;38.38
79037;BME280;68434;59.896;30.474;2023-07-13T05:06:03;100526.31;;;20.45;38.45
79037;BME280;68434;59.896;30.474;2023-07-13T05:08:31;100524.56;;;20.51;37.57
79037;BME280;68434;59.896;30.474;2023-07-13T05:11:00;100520.78;;;20.52;36.78
79037;BME280;68434;59.896;30.474;2023-07-13T05:13:28;100520.78;;;20.52;36.89
79037;BME280;68434;59.896;30.474;2023-07-13T05:15:57;100514.22;;;20.53;36.67
79037;BME280;68434;59.896;30.474;2023-07-13T05:18:25;100512.91;;;20.56;36.89
79037;BME280;68434;59.896;30.474;2023-07-13T05:21:01;100519.94;;;20.52;37.19
79037;BME280;68434;59.896;30.474;2023-07-13T05:23:31;100525.44;;;20.52;37.11
79037;BME280;68434;59.896;30.474;2023-07-13T05:25:59;100532.00;;;20.51;37.58
79037;BME280;68434;59.896;30.474;2023-07-13T05:28:28;100531.56;;;20.54;37.19
79037;BME280;68434;59.896;30.474;2023-07-13T05:30:56;100533.22;;;20.55;37.23
79037;BME280;68434;59.896;30.474;2023-07-13T05:33:24;100526.66;;;20.56;37.38
79037;BME280;68434;59.896;30.474;2023-07-13T05:35:52;100533.38;;;20.60;37.05
79037;BME280;68434;59.896;30.474;2023-07-13T05:38:21;100534.66;;;20.57;37.26
79037;BME280;68434;59.896;30.474;2023-07-13T05:40:50;100534.31;;;20.54;36.97
79037;BME280;68434;59.896;30.474;2023-07-13T05:43:17;100532.16;;;20.56;36.93
79037;BME280;68434;59.896;30.474;2023-07-13T05:45:45;100532.78;;;20.58;36.66
79037;BME280;68434;59.896;30.474;2023-07-13T05:48:13;100534.91;;;20.56;36.74
79037;BME280;68434;59.896;30.474;2023-07-13T05:50:40;100530.03;;;20.58;36.54
79037;BME280;68434;59.896;30.474;2023-07-13T05:53:08;100530.41;;;20.61;36.45
79037;BME280;68434;59.896;30.474;2023-07-13T05:55:41;100535.22;;;20.66;36.14
79037;BME280;68434;59.896;30.474;2023-07-13T05:58:09;100534.53;;;20.70;36.43
79037;BME280;68434;59.896;30.474;2023-07-13T06:00:36;100529.44;;;20.74;36.21
79037;BME280;68434;59.896;30.474;2023-07-13T06:03:04;100532.81;;;20.76;36.29
79037;BME280;68434;59.896;30.474;2023-07-13T06:05:32;100530.44;;;20.79;36.49
79037;BME280;68434;59.896;30.474;2023-07-13T06:08:00;100529.31;;;20.87;36.53
79037;BME280;68434;59.896;30.474;2023-07-13T06:10:28;100518.31;;;20.87;36.74
79037;BME280;68434;59.896;30.474;2023-07-13T06:12:57;100516.41;;;20.87;37.20
79037;BME280;68434;59.896;30.474;2023-07-13T06:15:25;100519.56;;;20.91;37.52
79037;BME280;68434;59.896;30.474;2023-07-13T06:17:52;100519.72;;;20.96;37.43
79037;BME280;68434;59.896;30.474;2023-07-13T06:20:20;100526.31;;;20.95;37.21
79037;BME280;68434;59.896;30.474;2023-07-13T06:22:48;100526.72;;;20.92;37.23
79037;BME280;68434;59.896;30.474;2023-07-13T06:25:15;100526.94;;;20.90;37.30
79037;BME280;68434;59.896;30.474;2023-07-13T06:27:43;100521.84;;;20.94;37.29
79037;BME280;68434;59.896;30.474;2023-07-13T06:30:13;100527.16;;;20.95;37.07
79037;BME280;68434;59.896;30.474;2023-07-13T06:32:41;100531.97;;;21.00;37.06
79037;BME280;68434;59.896;30.474;2023-07-13T06:35:08;100531.56;;;20.96;37.11
79037;BME280;68434;59.896;30.474;2023-07-13T06:37:38;100544.88;;;20.99;37.26
79037;BME280;68434;59.896;30.474;2023-07-13T06:40:07;100544.66;;;20.94;37.79
79037;BME280;68434;59.896;30.474;2023-07-13T06:42:39;100549.81;;;20.91;37.97
79037;BME280;68434;59.896;30.474;2023-07-13T06:45:08;100539.72;;;20.85;37.87
79037;BME280;68434;59.896;30.474;2023-07-13T06:47:37;100542.00;;;20.88;37.96
79037;BME280;68434;59.896;30.474;2023-07-13T06:50:06;100536.28;;;20.89;38.03
79037;BME280;68434;59.896;30.474;2023-07-13T06:52:33;100539.84;;;20.90;38.09
79037;BME280;68434;59.896;30.474;2023-07-13T06:55:01;100540.06;;;20.95;38.21
79037;BME280;68434;59.896;30.474;2023-07-13T06:57:30;100543.34;;;21.03;37.95
79037;BME280;68434;59.896;30.474;2023-07-13T06:59:58;100552.84;;;21.07;38.07
79037;BME280;68434;59.896;30.474;2023-07-13T07:02:26;100544.13;;;21.10;38.03
79037;BME280;68434;59.896;30.474;2023-07-13T07:04:55;100546.88;;;21.10;38.83
79037;BME280;68434;59.896;30.474;2023-07-13T07:07:24;100547.88;;;21.16;38.60
79037;BME280;68434;59.896;30.474;2023-07-13T07:09:51;100553.53;;;21.21;38.69
79037;BME280;68434;59.896;30.474;2023-07-13T07:12:19;100550.91;;;21.26;38.49
79037;BME280;68434;59.896;30.474;2023-07-13T07:14:47;100557.66;;;21.30;38.51
79037;BME280;68434;59.896;30.474;2023-07-13T07:17:15;100544.50;;;21.32;38.97
79037;BME280;68434;59.896;30.474;2023-07-13T07:19:42;100550.00;;;21.32;38.97
79037;BME280;68434;59.896;30.474;2023-07-13T07:22:12;100545.59;;;21.31;38.91
79037;BME280;68434;59.896;30.474;2023-07-13T07:24:39;100548.97;;;21.33;38.53
79037;BME280;68434;59.896;30.474;2023-07-13T07:27:07;100551.63;;;21.39;38.38
79037;BME280;68434;59.896;30.474;2023-07-13T07:29:35;100545.41;;;21.44;38.87
79037;BME280;68434;59.896;30.474;2023-07-13T07:32:03;100547.94;;;21.45;38.90
79037;BME280;68434;59.896;30.474;2023-07-13T07:34:31;100549.41;;;21.48;38.82
79037;BME280;68434;59.896;30.474;2023-07-13T07:37:00;100563.31;;;21.53;38.30
79037;BME280;68434;59.896;30.474;2023-07-13T07:39:29;100569.50;;;21.48;38.54
79037;BME280;68434;59.896;30.474;2023-07-13T07:41:57;100557.66;;;21.48;38.60
79037;BME280;68434;59.896;30.474;2023-07-13T07:44:25;100566.16;;;21.46;39.02
79037;BME280;68434;59.896;30.474;2023-07-13T07:46:54;100568.69;;;21.48;39.00
79037;BME280;68434;59.896;30.474;2023-07-13T07:49:25;100565.94;;;21.48;39.62
79037;BME280;68434;59.896;30.474;2023-07-13T07:51:52;100569.03;;;21.51;39.88
79037;BME280;68434;59.896;30.474;2023-07-13T07:54:20;100575.16;;;21.53;39.89
79037;BME280;68434;59.896;30.474;2023-07-13T07:56:49;100580.22;;;21.56;40.35
79037;BME280;68434;59.896;30.474;2023-07-13T07:59:17;100579.13;;;21.57;40.17
79037;BME280;68434;59.896;30.474;2023-07-13T08:01:45;100585.94;;;21.55;40.05
79037;BME280;68434;59.896;30.474;2023-07-13T08:04:14;100578.78;;;21.54;39.95
79037;BME280;68434;59.896;30.474;2023-07-13T08:06:42;100585.09;;;21.54;39.84
79037;BME280;68434;59.896;30.474;2023-07-13T08:09:09;100571.78;;;21.51;39.89
79037;BME280;68434;59.896;30.474;2023-07-13T08:11:37;100584.75;;;21.51;40.00
79037;BME280;68434;59.896;30.474;2023-07-13T08:14:06;100573.09;;;21.49;40.15
79037;BME280;68434;59.896;30.474;2023-07-13T08:16:35;100575.63;;;21.50;40.07
79037;BME280;68434;59.896;30.474;2023-07-13T08:19:05;100570.13;;;21.50;39.94
79037;BME280;68434;59.896;30.474;2023-07-13T08:21:33;100570.75;;;21.52;40.50
79037;BME280;68434;59.896;30.474;2023-07-13T08:24:01;100565.69;;;21.49;40.63
79037;BME280;68434;59.896;30.474;2023-07-13T08:26:29;100565.47;;;21.51;40.73
79037;BME280;68434;59.896;30.474;2023-07-13T08:28:57;100574.53;;;21.51;40.96
79037;BME280;68434;59.896;30.474;2023-07-13T08:31:26;100571.78;;;21.51;40.93
79037;BME280;68434;59.896;30.474;2023-07-13T08:33:54;100571.56;;;21.53;40.99
79037;BME280;68434;59.896;30.474;2023-07-13T08:36:21;100569.91;;;21.52;41.24
79037;BME280;68434;59.896;30.474;2023-07-13T08:38:49;100576.47;;;21.51;41.24
79037;BME280;68434;59.896;30.474;2023-07-13T08:41:18;100582.00;;;21.51;41.10
79037;BME280;68434;59.896;30.474;2023-07-13T08:43:47;100586.63;;;21.50;40.84
79037;BME280;68434;59.896;30.474;2023-07-13T08:46:18;100584.34;;;21.47;40.78
79037;BME280;68434;59.896;30.474;2023-07-13T08:48:50;100589.00;;;21.47;41.14
79037;BME280;68434;59.896;30.474;2023-07-13T08:51:27;100574.53;;;21.51;41.33
79037;BME280;68434;59.896;30.474;2023-07-13T08:53:59;100578.53;;;21.55;41.16
79037;BME280;68434;59.896;30.474;2023-07-13T08:56:29;100571.50;;;21.59;41.05
79037;BME280;68434;59.896;30.474;2023-07-13T08:59:00;100565.28;;;21.64;41.06
79037;BME280;68434;59.896;30.474;2023-07-13T09:01:42;100563.53;;;21.69;41.51
79037;BME280;68434;59.896;30.474;2023-07-13T09:04:17;100556.31;;;21.75;41.55
79037;BME280;68434;59.896;30.474;2023-07-13T09:07:01;100567.66;;;21.78;41.41
79037;BME280;68434;59.896;30.474;2023-07-13T09:09:40;100549.63;;;21.82;41.06
79037;BME280;68434;59.896;30.474;2023-07-13T09:12:14;100556.97;;;21.88;41.51
79037;BME280;68434;59.896;30.474;2023-07-13T09:14:46;100559.59;;;21.95;41.33
79037;BME280;68434;59.896;30.474;2023-07-13T09:17:18;100561.88;;;21.98;40.91
79037;BME280;68434;59.896;30.474;2023-07-13T09:19:55;100556.75;;;22.01;41.00
79037;BME280;68434;59.896;30.474;2023-07-13T09:22:25;100564.56;;;22.04;41.15
79037;BME280;68434;59.896;30.474;2023-07-13T09:24:59;100556.06;;;22.06;41.06
79037;BME280;68434;59.896;30.474;2023-07-13T09:27:35;100552.00;;;22.08;41.25
79037;BME280;68434;59.896;30.474;2023-07-13T09:30:21;100560.16;;;22.15;41.29
79037;BME280;68434;59.896;30.474;2023-07-13T09:32:52;100556.31;;;22.16;40.85
79037;BME280;68434;59.896;30.474;2023-07-13T09:35:25;100557.41;;;22.15;40.55
79037;BME280;68434;59.896;30.474;2023-07-13T09:37:58;100555.75;;;22.14;40.51
79037;BME280;68434;59.896;30.474;2023-07-13T09:40:43;100560.16;;;22.15;40.36
79037;BME280;68434;59.896;30.474;2023-07-13T09:43:14;100548.91;;;22.16;40.43
79037;BME280;68434;59.896;30.474;2023-07-13T09:45:45;100550.34;;;22.19;40.27
79037;BME280;68434;59.896;30.474;2023-07-13T09:48:15;100542.94;;;22.19;40.41
79037;BME280;68434;59.896;30.474;2023-07-13T09:50:45;100553.47;;;22.22;40.65
79037;BME280;68434;59.896;30.474;2023-07-13T09:53:13;100539.47;;;22.24;40.49
79037;BME280;68434;59.896;30.474;2023-07-13T09:55:43;100536.25;;;22.27;40.72
79037;BME280;68434;59.896;30.474;2023-07-13T09:58:14;100530.88;;;22.32;40.80
79037;BME280;68434;59.896;30.474;2023-07-13T10:00:43;100532.06;;;22.36;41.01
79037;BME280;68434;59.896;30.474;2023-07-13T10:03:23;100537.97;;;22.40;41.07
79037;BME280;68434;59.896;30.474;2023-07-13T10:05:52;100529.69;;;22.40;40.85
79037;BME280;68434;59.896;30.474;2023-07-13T10:08:23;100525.97;;;22.46;40.67
79037;BME280;68434;59.896;30.474;2023-07-13T10:10:58;100525.38;;;22.44;40.71
79037;BME280;68434;59.896;30.474;2023-07-13T10:13:30;100535.31;;;22.45;41.00
79037;BME280;68434;59.896;30.474;2023-07-13T10:15:59;100535.69;;;22.48;41.13
79037;BME280;68434;59.896;30.474;2023-07-13T10:18:28;100529.94;;;22.50;41.09
79037;BME280;68434;59.896;30.474;2023-07-13T10:21:11;100538.63;;;22.53;40.83
79037;BME280;68434;59.896;30.474;2023-07-13T10:23:39;100533.09;;;22.53;40.84
79037;BME280;68434;59.896;30.474;2023-07-13T10:26:13;100542.19;;;22.54;41.07
79037;BME280;68434;59.896;30.474;2023-07-13T10:28:45;100535.97;;;22.58;41.05
79037;BME280;68434;59.896;30.474;2023-07-13T10:31:16;100542.69;;;22.62;41.12
79037;BME280;68434;59.896;30.474;2023-07-13T10:33:44;100536.72;;;22.65;41.21
79037;BME280;68434;59.896;30.474;2023-07-13T10:36:17;100531.19;;;22.65;41.04
79037;BME280;68434;59.896;30.474;2023-07-13T10:38:48;100536.22;;;22.68;40.78
79037;BME280;68434;59.896;30.474;2023-07-13T10:41:21;100531.28;;;22.70;40.95
79037;BME280;68434;59.896;30.474;2023-07-13T10:43:51;100545.09;;;22.70;41.33
79037;BME280;68434;59.896;30.474;2023-07-13T10:46:22;100541.75;;;22.68;41.52
79037;BME280;68434;59.896;30.474;2023-07-13T10:48:53;100543.19;;;22.71;41.54
79037;BME280;68434;59.896;30.474;2023-07-13T10:51:23;100533.00;;;22.71;41.68
79037;BME280;68434;59.896;30.474;2023-07-13T10:54:12;100546.78;;;22.71;41.68
79037;BME280;68434;59.896;30.474;2023-07-13T10:56:43;100538.75;;;22.70;41.46
79037;BME280;68434;59.896;30.474;2023-07-13T10:59:13;100545.56;;;22.67;41.52
79037;BME280;68434;59.896;30.474;2023-07-13T11:01:55;100556.59;;;22.67;41.43
79037;BME280;68434;59.896;30.474;2023-07-13T11:04:24;100542.56;;;22.69;41.44
79037;BME280;68434;59.896;30.474;2023-07-13T11:06:57;100550.38;;;22.72;41.42
79037;BME280;68434;59.896;30.474;2023-07-13T11:09:37;100546.88;;;22.76;41.38
79037;BME280;68434;59.896;30.474;2023-07-13T11:12:25;100542.13;;;22.83;41.54
79037;BME280;68434;59.896;30.474;2023-07-13T11:15:05;100543.91;;;22.89;41.47
79037;BME280;68434;59.896;30.474;2023-07-13T11:17:37;100544.00;;;22.94;41.41
79037;BME280;68434;59.896;30.474;2023-07-13T11:20:39;100540.53;;;22.99;41.60
79037;BME280;68434;59.896;30.474;2023-07-13T11:23:28;100551.69;;;23.04;41.27
79037;BME280;68434;59.896;30.474;2023-07-13T11:25:57;100551.22;;;23.07;41.36
79037;BME280;68434;59.896;30.474;2023-07-13T11:28:27;100550.75;;;23.10;41.23
79037;BME280;68434;59.896;30.474;2023-07-13T11:31:03;100562.34;;;23.12;41.18
79037;BME280;68434;59.896;30.474;2023-07-13T11:33:51;100559.13;;;23.15;41.27
79037;BME280;68434;59.896;30.474;2023-07-13T11:36:21;100549.53;;;23.17;41.10
79037;BME280;68434;59.896;30.474;2023-07-13T11:39:01;100551.69;;;23.15;40.22
79037;BME280;68434;59.896;30.474;2023-07-13T11:41:31;100554.06;;;23.12;40.18
79037;BME280;68434;59.896;30.474;2023-07-13T11:44:11;100552.88;;;23.08;40.09
79037;BME280;68434;59.896;30.474;2023-07-13T11:46:44;100554.47;;;23.04;40.14
79037;BME280;68434;59.896;30.474;2023-07-13T11:49:16;100555.56;;;23.03;40.23
79037;BME280;68434;59.896;30.474;2023-07-13T11:51:44;100559.38;;;23.02;39.91
79037;BME280;68434;59.896;30.474;2023-07-13T11:54:23;100558.91;;;22.93;39.47
79037;BME280;68434;59.896;30.474;2023-07-13T11:56:52;100565.13;;;22.89;39.61
79037;BME280;68434;59.896;30.474;2023-07-13T11:59:20;100577.13;;;22.94;39.35
79037;BME280;68434;59.896;30.474;2023-07-13T12:01:51;100571.38;;;22.96;39.19
79037;BME280;68434;59.896;30.474;2023-07-13T12:04:23;100569.47;;;22.96;39.25
79037;BME280;68434;59.896;30.474;2023-07-13T12:06:57;100573.06;;;22.97;39.31
79037;BME280;68434;59.896;30.474;2023-07-13T12:09:28;100575.13;;;23.01;39.47
79037;BME280;68434;59.896;30.474;2023-07-13T12:11:57;100565.03;;;23.07;39.35
79037;BME280;68434;59.896;30.474;2023-07-13T12:14:27;100568.38;;;23.09;39.36
79037;BME280;68434;59.896;30.474;2023-07-13T12:16:55;100570.06;;;23.10;39.40
79037;BME280;68434;59.896;30.474;2023-07-13T12:19:25;100573.16;;;23.13;39.78
79037;BME280;68434;59.896;30.474;2023-07-13T12:21:56;100564.06;;;23.13;39.75
79037;BME280;68434;59.896;30.474;2023-07-13T12:24:25;100575.91;;;23.13;39.54
79037;BME280;68434;59.896;30.474;2023-07-13T12:26:59;100579.44;;;23.09;40.00
79037;BME280;68434;59.896;30.474;2023-07-13T12:29:28;100572.69;;;23.05;40.03
79037;BME280;68434;59.896;30.474;2023-07-13T12:31:56;100587.34;;;23.05;40.43
79037;BME280;68434;59.896;30.474;2023-07-13T12:34:25;100581.81;;;23.05;40.43
79037;BME280;68434;59.896;30.474;2023-07-13T12:36:55;100581.22;;;23.03;40.72
79037;BME280;68434;59.896;30.474;2023-07-13T12:39:25;100581.22;;;23.03;40.72
79037;BME280;68434;59.896;30.474;2023-07-13T12:42:19;100583.38;;;23.13;41.79
79037;BME280;68434;59.896;30.474;2023-07-13T12:44:49;100586.25;;;23.18;41.44
79037;BME280;68434;59.896;30.474;2023-07-13T12:47:20;100569.66;;;23.18;41.35
79037;BME280;68434;59.896;30.474;2023-07-13T12:49:52;100579.78;;;23.12;41.28
79037;BME280;68434;59.896;30.474;2023-07-13T12:52:22;100579.19;;;23.10;41.61
79037;BME280;68434;59.896;30.474;2023-07-13T12:54:54;100574.16;;;23.07;41.62
79037;BME280;68434;59.896;30.474;2023-07-13T12:57:25;100581.34;;;23.08;41.46